<?xml version="1.0" encoding="UTF-8" standalone="no" ?>
<gpx xmlns="http://www.topografix.com/GPX/1/1" xmlns:xsi="http://www.w3.org/2001/XMLSchema-instance" xsi:schemaLocation="http://www.topografix.com/GPX/1/1 http://www.topografix.com/GPX/1/1/gpx.xsd" version="1.1" creator="VisuGPX - https://www.visugpx.com">
  <metadata>
    <name>Dondas - Sabré - 13 août 2017</name>
    <desc><![CDATA[Dondas - Sabré - 13 août 2017 ----------]]></desc>
  </metadata>
  <trk>
    <name><![CDATA[2017-08-13T08:59:25Z]]></name>
    <trkseg>
      <trkpt lat="44.22003" lon="0.84552">
        <ele>165.84</ele>
        <time>2017-08-13T08:59:26Z</time>
      </trkpt>
      <trkpt lat="44.22003" lon="0.84552">
        <ele>165.74</ele>
        <time>2017-08-13T08:59:27Z</time>
      </trkpt>
      <trkpt lat="44.21998" lon="0.84559">
        <ele>166.691</ele>
        <time>2017-08-13T08:59:33Z</time>
      </trkpt>
      <trkpt lat="44.21991" lon="0.84557">
        <ele>167.051</ele>
        <time>2017-08-13T08:59:37Z</time>
      </trkpt>
      <trkpt lat="44.21989" lon="0.84566">
        <ele>167.031</ele>
        <time>2017-08-13T08:59:41Z</time>
      </trkpt>
      <trkpt lat="44.21999" lon="0.84601">
        <ele>166.63</ele>
        <time>2017-08-13T08:59:48Z</time>
      </trkpt>
      <trkpt lat="44.22003" lon="0.84613">
        <ele>166.5</ele>
        <time>2017-08-13T08:59:50Z</time>
      </trkpt>
      <trkpt lat="44.22027" lon="0.84647">
        <ele>166.791</ele>
        <time>2017-08-13T08:59:56Z</time>
      </trkpt>
      <trkpt lat="44.2205" lon="0.84676">
        <ele>168.623</ele>
        <time>2017-08-13T09:00:02Z</time>
      </trkpt>
      <trkpt lat="44.22056" lon="0.84687">
        <ele>168.922</ele>
        <time>2017-08-13T09:00:05Z</time>
      </trkpt>
      <trkpt lat="44.2205" lon="0.84706">
        <ele>169.151</ele>
        <time>2017-08-13T09:00:10Z</time>
      </trkpt>
      <trkpt lat="44.22041" lon="0.84735">
        <ele>169.891</ele>
        <time>2017-08-13T09:00:17Z</time>
      </trkpt>
      <trkpt lat="44.22034" lon="0.84766">
        <ele>171.842</ele>
        <time>2017-08-13T09:00:25Z</time>
      </trkpt>
      <trkpt lat="44.22026" lon="0.84789">
        <ele>173.152</ele>
        <time>2017-08-13T09:00:32Z</time>
      </trkpt>
      <trkpt lat="44.22017" lon="0.84809">
        <ele>175.183</ele>
        <time>2017-08-13T09:00:39Z</time>
      </trkpt>
      <trkpt lat="44.22008" lon="0.84831">
        <ele>174.582</ele>
        <time>2017-08-13T09:00:46Z</time>
      </trkpt>
      <trkpt lat="44.21995" lon="0.84869">
        <ele>174.241</ele>
        <time>2017-08-13T09:00:57Z</time>
      </trkpt>
      <trkpt lat="44.21979" lon="0.84909">
        <ele>173.511</ele>
        <time>2017-08-13T09:01:09Z</time>
      </trkpt>
      <trkpt lat="44.21969" lon="0.8493">
        <ele>173.251</ele>
        <time>2017-08-13T09:01:17Z</time>
      </trkpt>
      <trkpt lat="44.21969" lon="0.84944">
        <ele>173.361</ele>
        <time>2017-08-13T09:01:22Z</time>
      </trkpt>
      <trkpt lat="44.2198" lon="0.84958">
        <ele>173.782</ele>
        <time>2017-08-13T09:01:28Z</time>
      </trkpt>
      <trkpt lat="44.21991" lon="0.84976">
        <ele>174.161</ele>
        <time>2017-08-13T09:01:34Z</time>
      </trkpt>
      <trkpt lat="44.2201" lon="0.85004">
        <ele>175.141</ele>
        <time>2017-08-13T09:01:44Z</time>
      </trkpt>
      <trkpt lat="44.22031" lon="0.85034">
        <ele>175.581</ele>
        <time>2017-08-13T09:01:54Z</time>
      </trkpt>
      <trkpt lat="44.22054" lon="0.85062">
        <ele>175.771</ele>
        <time>2017-08-13T09:02:03Z</time>
      </trkpt>
      <trkpt lat="44.22089" lon="0.85091">
        <ele>175.991</ele>
        <time>2017-08-13T09:02:14Z</time>
      </trkpt>
      <trkpt lat="44.22124" lon="0.85121">
        <ele>176.342</ele>
        <time>2017-08-13T09:02:25Z</time>
      </trkpt>
      <trkpt lat="44.22152" lon="0.85154">
        <ele>177.272</ele>
        <time>2017-08-13T09:02:35Z</time>
      </trkpt>
      <trkpt lat="44.22171" lon="0.85184">
        <ele>178.012</ele>
        <time>2017-08-13T09:02:43Z</time>
      </trkpt>
      <trkpt lat="44.22192" lon="0.8522">
        <ele>179.353</ele>
        <time>2017-08-13T09:02:53Z</time>
      </trkpt>
      <trkpt lat="44.22208" lon="0.85251">
        <ele>181.133</ele>
        <time>2017-08-13T09:03:03Z</time>
      </trkpt>
      <trkpt lat="44.22225" lon="0.85286">
        <ele>183.163</ele>
        <time>2017-08-13T09:03:14Z</time>
      </trkpt>
      <trkpt lat="44.2224" lon="0.85317">
        <ele>185.134</ele>
        <time>2017-08-13T09:03:24Z</time>
      </trkpt>
      <trkpt lat="44.22253" lon="0.8535">
        <ele>187.114</ele>
        <time>2017-08-13T09:03:34Z</time>
      </trkpt>
      <trkpt lat="44.22263" lon="0.85378">
        <ele>188.624</ele>
        <time>2017-08-13T09:03:43Z</time>
      </trkpt>
      <trkpt lat="44.22271" lon="0.8541">
        <ele>189.163</ele>
        <time>2017-08-13T09:03:52Z</time>
      </trkpt>
      <trkpt lat="44.2228" lon="0.85446">
        <ele>188.092</ele>
        <time>2017-08-13T09:03:59Z</time>
      </trkpt>
      <trkpt lat="44.2229" lon="0.85497">
        <ele>186.611</ele>
        <time>2017-08-13T09:04:06Z</time>
      </trkpt>
      <trkpt lat="44.22296" lon="0.85527">
        <ele>186.392</ele>
        <time>2017-08-13T09:04:10Z</time>
      </trkpt>
      <trkpt lat="44.22303" lon="0.85548">
        <ele>186.623</ele>
        <time>2017-08-13T09:04:14Z</time>
      </trkpt>
      <trkpt lat="44.22303" lon="0.85549">
        <ele>186.733</ele>
        <time>2017-08-13T09:04:18Z</time>
      </trkpt>
      <trkpt lat="44.22303" lon="0.85547">
        <ele>186.664</ele>
        <time>2017-08-13T09:04:32Z</time>
      </trkpt>
      <trkpt lat="44.22303" lon="0.85553">
        <ele>186.834</ele>
        <time>2017-08-13T09:04:36Z</time>
      </trkpt>
      <trkpt lat="44.22303" lon="0.85555">
        <ele>187.263</ele>
        <time>2017-08-13T09:04:43Z</time>
      </trkpt>
      <trkpt lat="44.22303" lon="0.85554">
        <ele>186.963</ele>
        <time>2017-08-13T09:04:50Z</time>
      </trkpt>
      <trkpt lat="44.22302" lon="0.85561">
        <ele>186.863</ele>
        <time>2017-08-13T09:04:54Z</time>
      </trkpt>
      <trkpt lat="44.22306" lon="0.85594">
        <ele>187.614</ele>
        <time>2017-08-13T09:05:00Z</time>
      </trkpt>
      <trkpt lat="44.22314" lon="0.85666">
        <ele>189.505</ele>
        <time>2017-08-13T09:05:09Z</time>
      </trkpt>
      <trkpt lat="44.22326" lon="0.8573">
        <ele>190.774</ele>
        <time>2017-08-13T09:05:17Z</time>
      </trkpt>
      <trkpt lat="44.22346" lon="0.85816">
        <ele>192.285</ele>
        <time>2017-08-13T09:05:28Z</time>
      </trkpt>
      <trkpt lat="44.22359" lon="0.85864">
        <ele>192.915</ele>
        <time>2017-08-13T09:05:35Z</time>
      </trkpt>
      <trkpt lat="44.22375" lon="0.85929">
        <ele>193.614</ele>
        <time>2017-08-13T09:05:46Z</time>
      </trkpt>
      <trkpt lat="44.22386" lon="0.85967">
        <ele>193.824</ele>
        <time>2017-08-13T09:05:54Z</time>
      </trkpt>
      <trkpt lat="44.22397" lon="0.86006">
        <ele>192.262</ele>
        <time>2017-08-13T09:06:01Z</time>
      </trkpt>
      <trkpt lat="44.22408" lon="0.86048">
        <ele>190.111</ele>
        <time>2017-08-13T09:06:06Z</time>
      </trkpt>
      <trkpt lat="44.22425" lon="0.86111">
        <ele>187.151</ele>
        <time>2017-08-13T09:06:12Z</time>
      </trkpt>
      <trkpt lat="44.22437" lon="0.86181">
        <ele>186.094</ele>
        <time>2017-08-13T09:06:18Z</time>
      </trkpt>
      <trkpt lat="44.22444" lon="0.8623">
        <ele>186.665</ele>
        <time>2017-08-13T09:06:23Z</time>
      </trkpt>
      <trkpt lat="44.22449" lon="0.86273">
        <ele>187.436</ele>
        <time>2017-08-13T09:06:29Z</time>
      </trkpt>
      <trkpt lat="44.22452" lon="0.86308">
        <ele>188.036</ele>
        <time>2017-08-13T09:06:36Z</time>
      </trkpt>
      <trkpt lat="44.22453" lon="0.86317">
        <ele>187.765</ele>
        <time>2017-08-13T09:06:38Z</time>
      </trkpt>
      <trkpt lat="44.22458" lon="0.86357">
        <ele>186.414</ele>
        <time>2017-08-13T09:06:44Z</time>
      </trkpt>
      <trkpt lat="44.22454" lon="0.86388">
        <ele>186.214</ele>
        <time>2017-08-13T09:06:48Z</time>
      </trkpt>
      <trkpt lat="44.22438" lon="0.86441">
        <ele>185.885</ele>
        <time>2017-08-13T09:06:56Z</time>
      </trkpt>
      <trkpt lat="44.22435" lon="0.86453">
        <ele>186.446</ele>
        <time>2017-08-13T09:06:58Z</time>
      </trkpt>
      <trkpt lat="44.22438" lon="0.8648">
        <ele>187.326</ele>
        <time>2017-08-13T09:07:03Z</time>
      </trkpt>
      <trkpt lat="44.2244" lon="0.86484">
        <ele>187.507</ele>
        <time>2017-08-13T09:07:04Z</time>
      </trkpt>
      <trkpt lat="44.22469" lon="0.86539">
        <ele>189.716</ele>
        <time>2017-08-13T09:07:16Z</time>
      </trkpt>
      <trkpt lat="44.22494" lon="0.86574">
        <ele>190.957</ele>
        <time>2017-08-13T09:07:25Z</time>
      </trkpt>
      <trkpt lat="44.22525" lon="0.86611">
        <ele>191.656</ele>
        <time>2017-08-13T09:07:36Z</time>
      </trkpt>
      <trkpt lat="44.22556" lon="0.86638">
        <ele>191.436</ele>
        <time>2017-08-13T09:07:45Z</time>
      </trkpt>
      <trkpt lat="44.22595" lon="0.86661">
        <ele>191.016</ele>
        <time>2017-08-13T09:07:55Z</time>
      </trkpt>
      <trkpt lat="44.2264" lon="0.86685">
        <ele>191.567</ele>
        <time>2017-08-13T09:08:07Z</time>
      </trkpt>
      <trkpt lat="44.22669" lon="0.86704">
        <ele>192.887</ele>
        <time>2017-08-13T09:08:17Z</time>
      </trkpt>
      <trkpt lat="44.22696" lon="0.86722">
        <ele>194.468</ele>
        <time>2017-08-13T09:08:27Z</time>
      </trkpt>
      <trkpt lat="44.22715" lon="0.86735">
        <ele>195.288</ele>
        <time>2017-08-13T09:08:34Z</time>
      </trkpt>
      <trkpt lat="44.22738" lon="0.86756">
        <ele>198.039</ele>
        <time>2017-08-13T09:08:43Z</time>
      </trkpt>
      <trkpt lat="44.22755" lon="0.86781">
        <ele>199.91</ele>
        <time>2017-08-13T09:08:51Z</time>
      </trkpt>
      <trkpt lat="44.22771" lon="0.86819">
        <ele>201.508</ele>
        <time>2017-08-13T09:09:01Z</time>
      </trkpt>
      <trkpt lat="44.22787" lon="0.8687">
        <ele>201.968</ele>
        <time>2017-08-13T09:09:13Z</time>
      </trkpt>
      <trkpt lat="44.22798" lon="0.86924">
        <ele>202.828</ele>
        <time>2017-08-13T09:09:25Z</time>
      </trkpt>
      <trkpt lat="44.22804" lon="0.86955">
        <ele>203.489</ele>
        <time>2017-08-13T09:09:32Z</time>
      </trkpt>
      <trkpt lat="44.22807" lon="0.86981">
        <ele>203.889</ele>
        <time>2017-08-13T09:09:38Z</time>
      </trkpt>
      <trkpt lat="44.2281" lon="0.87016">
        <ele>204.788</ele>
        <time>2017-08-13T09:09:46Z</time>
      </trkpt>
      <trkpt lat="44.22811" lon="0.8706">
        <ele>206.659</ele>
        <time>2017-08-13T09:09:56Z</time>
      </trkpt>
      <trkpt lat="44.22812" lon="0.87099">
        <ele>207.749</ele>
        <time>2017-08-13T09:10:05Z</time>
      </trkpt>
      <trkpt lat="44.22819" lon="0.87155">
        <ele>208.889</ele>
        <time>2017-08-13T09:10:18Z</time>
      </trkpt>
      <trkpt lat="44.22823" lon="0.87186">
        <ele>208.781</ele>
        <time>2017-08-13T09:10:25Z</time>
      </trkpt>
      <trkpt lat="44.22829" lon="0.87224">
        <ele>208.469</ele>
        <time>2017-08-13T09:10:33Z</time>
      </trkpt>
      <trkpt lat="44.22837" lon="0.87274">
        <ele>207.899</ele>
        <time>2017-08-13T09:10:42Z</time>
      </trkpt>
      <trkpt lat="44.22845" lon="0.87322">
        <ele>207.569</ele>
        <time>2017-08-13T09:10:50Z</time>
      </trkpt>
      <trkpt lat="44.22853" lon="0.87377">
        <ele>208.019</ele>
        <time>2017-08-13T09:10:59Z</time>
      </trkpt>
      <trkpt lat="44.2286" lon="0.87423">
        <ele>208.349</ele>
        <time>2017-08-13T09:11:07Z</time>
      </trkpt>
      <trkpt lat="44.22872" lon="0.87495">
        <ele>209.449</ele>
        <time>2017-08-13T09:11:19Z</time>
      </trkpt>
      <trkpt lat="44.22881" lon="0.87547">
        <ele>210.31</ele>
        <time>2017-08-13T09:11:28Z</time>
      </trkpt>
      <trkpt lat="44.22886" lon="0.87574">
        <ele>211.071</ele>
        <time>2017-08-13T09:11:33Z</time>
      </trkpt>
      <trkpt lat="44.22889" lon="0.8762">
        <ele>212.09</ele>
        <time>2017-08-13T09:11:41Z</time>
      </trkpt>
      <trkpt lat="44.22888" lon="0.87676">
        <ele>213.28</ele>
        <time>2017-08-13T09:11:51Z</time>
      </trkpt>
      <trkpt lat="44.22889" lon="0.87741">
        <ele>217.101</ele>
        <time>2017-08-13T09:12:03Z</time>
      </trkpt>
      <trkpt lat="44.22894" lon="0.87782">
        <ele>217.921</ele>
        <time>2017-08-13T09:12:11Z</time>
      </trkpt>
      <trkpt lat="44.22896" lon="0.8783">
        <ele>217.17</ele>
        <time>2017-08-13T09:12:20Z</time>
      </trkpt>
      <trkpt lat="44.22895" lon="0.87884">
        <ele>216.21</ele>
        <time>2017-08-13T09:12:30Z</time>
      </trkpt>
      <trkpt lat="44.22894" lon="0.87907">
        <ele>215.81</ele>
        <time>2017-08-13T09:12:34Z</time>
      </trkpt>
      <trkpt lat="44.2289" lon="0.88">
        <ele>214.19</ele>
        <time>2017-08-13T09:12:49Z</time>
      </trkpt>
      <trkpt lat="44.22888" lon="0.88054">
        <ele>214.391</ele>
        <time>2017-08-13T09:12:58Z</time>
      </trkpt>
      <trkpt lat="44.22884" lon="0.88122">
        <ele>215.091</ele>
        <time>2017-08-13T09:13:09Z</time>
      </trkpt>
      <trkpt lat="44.22879" lon="0.88173">
        <ele>215.921</ele>
        <time>2017-08-13T09:13:18Z</time>
      </trkpt>
      <trkpt lat="44.22873" lon="0.88243">
        <ele>217.461</ele>
        <time>2017-08-13T09:13:30Z</time>
      </trkpt>
      <trkpt lat="44.22869" lon="0.88288">
        <ele>218.722</ele>
        <time>2017-08-13T09:13:39Z</time>
      </trkpt>
      <trkpt lat="44.22869" lon="0.88298">
        <ele>218.841</ele>
        <time>2017-08-13T09:13:44Z</time>
      </trkpt>
      <trkpt lat="44.2287" lon="0.883">
        <ele>218.271</ele>
        <time>2017-08-13T09:13:50Z</time>
      </trkpt>
      <trkpt lat="44.2287" lon="0.88302">
        <ele>218.121</ele>
        <time>2017-08-13T09:13:53Z</time>
      </trkpt>
      <trkpt lat="44.22867" lon="0.88313">
        <ele>218.011</ele>
        <time>2017-08-13T09:13:58Z</time>
      </trkpt>
      <trkpt lat="44.2287" lon="0.88334">
        <ele>218.162</ele>
        <time>2017-08-13T09:14:05Z</time>
      </trkpt>
      <trkpt lat="44.22876" lon="0.88347">
        <ele>218.561</ele>
        <time>2017-08-13T09:14:10Z</time>
      </trkpt>
      <trkpt lat="44.22876" lon="0.88345">
        <ele>219.121</ele>
        <time>2017-08-13T09:14:14Z</time>
      </trkpt>
      <trkpt lat="44.22875" lon="0.88344">
        <ele>219.291</ele>
        <time>2017-08-13T09:14:15Z</time>
      </trkpt>
      <trkpt lat="44.22868" lon="0.8833">
        <ele>219.061</ele>
        <time>2017-08-13T09:14:23Z</time>
      </trkpt>
      <trkpt lat="44.22867" lon="0.88308">
        <ele>217.351</ele>
        <time>2017-08-13T09:14:32Z</time>
      </trkpt>
      <trkpt lat="44.22865" lon="0.88304">
        <ele>216.961</ele>
        <time>2017-08-13T09:14:35Z</time>
      </trkpt>
      <trkpt lat="44.2286" lon="0.88304">
        <ele>216.381</ele>
        <time>2017-08-13T09:14:40Z</time>
      </trkpt>
      <trkpt lat="44.22843" lon="0.88314">
        <ele>215.04</ele>
        <time>2017-08-13T09:14:47Z</time>
      </trkpt>
      <trkpt lat="44.22819" lon="0.88331">
        <ele>213.629</ele>
        <time>2017-08-13T09:14:53Z</time>
      </trkpt>
      <trkpt lat="44.22778" lon="0.8836">
        <ele>211.299</ele>
        <time>2017-08-13T09:15:01Z</time>
      </trkpt>
      <trkpt lat="44.22744" lon="0.88385">
        <ele>209.74</ele>
        <time>2017-08-13T09:15:08Z</time>
      </trkpt>
      <trkpt lat="44.227" lon="0.88415">
        <ele>207.606</ele>
        <time>2017-08-13T09:15:16Z</time>
      </trkpt>
      <trkpt lat="44.22657" lon="0.88429">
        <ele>206.53</ele>
        <time>2017-08-13T09:15:23Z</time>
      </trkpt>
      <trkpt lat="44.22613" lon="0.8843">
        <ele>204.599</ele>
        <time>2017-08-13T09:15:30Z</time>
      </trkpt>
      <trkpt lat="44.22569" lon="0.88426">
        <ele>204.52</ele>
        <time>2017-08-13T09:15:38Z</time>
      </trkpt>
      <trkpt lat="44.22527" lon="0.88423">
        <ele>206.071</ele>
        <time>2017-08-13T09:15:47Z</time>
      </trkpt>
      <trkpt lat="44.22484" lon="0.88427">
        <ele>207.782</ele>
        <time>2017-08-13T09:15:57Z</time>
      </trkpt>
      <trkpt lat="44.22443" lon="0.88438">
        <ele>208.811</ele>
        <time>2017-08-13T09:16:08Z</time>
      </trkpt>
      <trkpt lat="44.22408" lon="0.88448">
        <ele>208.209</ele>
        <time>2017-08-13T09:16:18Z</time>
      </trkpt>
      <trkpt lat="44.22378" lon="0.88456">
        <ele>206.879</ele>
        <time>2017-08-13T09:16:25Z</time>
      </trkpt>
      <trkpt lat="44.22359" lon="0.88461">
        <ele>206.179</ele>
        <time>2017-08-13T09:16:30Z</time>
      </trkpt>
      <trkpt lat="44.22355" lon="0.88461">
        <ele>206.02</ele>
        <time>2017-08-13T09:16:32Z</time>
      </trkpt>
      <trkpt lat="44.22352" lon="0.88454">
        <ele>206.099</ele>
        <time>2017-08-13T09:16:36Z</time>
      </trkpt>
      <trkpt lat="44.22356" lon="0.88422">
        <ele>208.11</ele>
        <time>2017-08-13T09:16:45Z</time>
      </trkpt>
      <trkpt lat="44.2236" lon="0.88377">
        <ele>209.379</ele>
        <time>2017-08-13T09:16:54Z</time>
      </trkpt>
      <trkpt lat="44.22364" lon="0.88325">
        <ele>210.219</ele>
        <time>2017-08-13T09:17:04Z</time>
      </trkpt>
      <trkpt lat="44.22368" lon="0.88289">
        <ele>210.639</ele>
        <time>2017-08-13T09:17:11Z</time>
      </trkpt>
      <trkpt lat="44.22372" lon="0.88232">
        <ele>208.408</ele>
        <time>2017-08-13T09:17:21Z</time>
      </trkpt>
      <trkpt lat="44.22377" lon="0.88179">
        <ele>206.368</ele>
        <time>2017-08-13T09:17:31Z</time>
      </trkpt>
      <trkpt lat="44.22379" lon="0.88152">
        <ele>205.317</ele>
        <time>2017-08-13T09:17:36Z</time>
      </trkpt>
      <trkpt lat="44.22374" lon="0.8813">
        <ele>205.718</ele>
        <time>2017-08-13T09:17:40Z</time>
      </trkpt>
      <trkpt lat="44.22366" lon="0.88123">
        <ele>205.388</ele>
        <time>2017-08-13T09:17:42Z</time>
      </trkpt>
      <trkpt lat="44.22328" lon="0.88097">
        <ele>202.805</ele>
        <time>2017-08-13T09:17:49Z</time>
      </trkpt>
      <trkpt lat="44.22322" lon="0.88093">
        <ele>201.945</ele>
        <time>2017-08-13T09:17:50Z</time>
      </trkpt>
      <trkpt lat="44.22287" lon="0.88058">
        <ele>198.585</ele>
        <time>2017-08-13T09:17:56Z</time>
      </trkpt>
      <trkpt lat="44.22281" lon="0.8805">
        <ele>197.864</ele>
        <time>2017-08-13T09:17:57Z</time>
      </trkpt>
      <trkpt lat="44.22245" lon="0.88013">
        <ele>193.422</ele>
        <time>2017-08-13T09:18:02Z</time>
      </trkpt>
      <trkpt lat="44.22235" lon="0.88008">
        <ele>192.403</ele>
        <time>2017-08-13T09:18:03Z</time>
      </trkpt>
      <trkpt lat="44.2215" lon="0.87981">
        <ele>185.395</ele>
        <time>2017-08-13T09:18:11Z</time>
      </trkpt>
      <trkpt lat="44.22092" lon="0.87949">
        <ele>182.756</ele>
        <time>2017-08-13T09:18:17Z</time>
      </trkpt>
      <trkpt lat="44.22053" lon="0.87909">
        <ele>180.937</ele>
        <time>2017-08-13T09:18:22Z</time>
      </trkpt>
      <trkpt lat="44.22038" lon="0.87888">
        <ele>179.646</ele>
        <time>2017-08-13T09:18:25Z</time>
      </trkpt>
      <trkpt lat="44.22033" lon="0.8788">
        <ele>179.337</ele>
        <time>2017-08-13T09:18:28Z</time>
      </trkpt>
      <trkpt lat="44.22032" lon="0.87879">
        <ele>179.308</ele>
        <time>2017-08-13T09:18:33Z</time>
      </trkpt>
      <trkpt lat="44.2203" lon="0.87873">
        <ele>180.006</ele>
        <time>2017-08-13T09:19:09Z</time>
      </trkpt>
      <trkpt lat="44.22012" lon="0.87857">
        <ele>179.846</ele>
        <time>2017-08-13T09:19:15Z</time>
      </trkpt>
      <trkpt lat="44.2198" lon="0.87828">
        <ele>178.485</ele>
        <time>2017-08-13T09:19:23Z</time>
      </trkpt>
      <trkpt lat="44.21942" lon="0.87795">
        <ele>176.545</ele>
        <time>2017-08-13T09:19:31Z</time>
      </trkpt>
      <trkpt lat="44.21895" lon="0.87754">
        <ele>174.514</ele>
        <time>2017-08-13T09:19:40Z</time>
      </trkpt>
      <trkpt lat="44.21845" lon="0.87717">
        <ele>172.664</ele>
        <time>2017-08-13T09:19:49Z</time>
      </trkpt>
      <trkpt lat="44.2181" lon="0.87687">
        <ele>172.156</ele>
        <time>2017-08-13T09:19:56Z</time>
      </trkpt>
      <trkpt lat="44.21778" lon="0.8765">
        <ele>171.736</ele>
        <time>2017-08-13T09:20:04Z</time>
      </trkpt>
      <trkpt lat="44.21743" lon="0.87621">
        <ele>171.356</ele>
        <time>2017-08-13T09:20:12Z</time>
      </trkpt>
      <trkpt lat="44.21704" lon="0.876">
        <ele>172.897</ele>
        <time>2017-08-13T09:20:21Z</time>
      </trkpt>
      <trkpt lat="44.21663" lon="0.8758">
        <ele>175.276</ele>
        <time>2017-08-13T09:20:32Z</time>
      </trkpt>
      <trkpt lat="44.21631" lon="0.87568">
        <ele>174.433</ele>
        <time>2017-08-13T09:20:39Z</time>
      </trkpt>
      <trkpt lat="44.21588" lon="0.8756">
        <ele>173.393</ele>
        <time>2017-08-13T09:20:47Z</time>
      </trkpt>
      <trkpt lat="44.21539" lon="0.87551">
        <ele>174.566</ele>
        <time>2017-08-13T09:20:56Z</time>
      </trkpt>
      <trkpt lat="44.21519" lon="0.87548">
        <ele>176.046</ele>
        <time>2017-08-13T09:21:01Z</time>
      </trkpt>
      <trkpt lat="44.21496" lon="0.87544">
        <ele>177.756</ele>
        <time>2017-08-13T09:21:09Z</time>
      </trkpt>
      <trkpt lat="44.21467" lon="0.87545">
        <ele>180.476</ele>
        <time>2017-08-13T09:21:20Z</time>
      </trkpt>
      <trkpt lat="44.2144" lon="0.87547">
        <ele>184.817</ele>
        <time>2017-08-13T09:21:30Z</time>
      </trkpt>
      <trkpt lat="44.21419" lon="0.87549">
        <ele>186.354</ele>
        <time>2017-08-13T09:21:37Z</time>
      </trkpt>
      <trkpt lat="44.21394" lon="0.8755">
        <ele>185.613</ele>
        <time>2017-08-13T09:21:42Z</time>
      </trkpt>
      <trkpt lat="44.21367" lon="0.87548">
        <ele>182.02</ele>
        <time>2017-08-13T09:21:46Z</time>
      </trkpt>
      <trkpt lat="44.21309" lon="0.87528">
        <ele>177.008</ele>
        <time>2017-08-13T09:21:53Z</time>
      </trkpt>
      <trkpt lat="44.2127" lon="0.87514">
        <ele>175.032</ele>
        <time>2017-08-13T09:21:58Z</time>
      </trkpt>
      <trkpt lat="44.21213" lon="0.87491">
        <ele>173.183</ele>
        <time>2017-08-13T09:22:07Z</time>
      </trkpt>
      <trkpt lat="44.21148" lon="0.87464">
        <ele>172.323</ele>
        <time>2017-08-13T09:22:18Z</time>
      </trkpt>
      <trkpt lat="44.21086" lon="0.87439">
        <ele>173.714</ele>
        <time>2017-08-13T09:22:29Z</time>
      </trkpt>
      <trkpt lat="44.2104" lon="0.87417">
        <ele>175.132</ele>
        <time>2017-08-13T09:22:38Z</time>
      </trkpt>
      <trkpt lat="44.21005" lon="0.87397">
        <ele>176.702</ele>
        <time>2017-08-13T09:22:46Z</time>
      </trkpt>
      <trkpt lat="44.20977" lon="0.87377">
        <ele>177.732</ele>
        <time>2017-08-13T09:22:54Z</time>
      </trkpt>
      <trkpt lat="44.20952" lon="0.87355">
        <ele>178.672</ele>
        <time>2017-08-13T09:23:03Z</time>
      </trkpt>
      <trkpt lat="44.2093" lon="0.87337">
        <ele>178.08</ele>
        <time>2017-08-13T09:23:11Z</time>
      </trkpt>
      <trkpt lat="44.20906" lon="0.87319">
        <ele>176.008</ele>
        <time>2017-08-13T09:23:17Z</time>
      </trkpt>
      <trkpt lat="44.20873" lon="0.87294">
        <ele>173.057</ele>
        <time>2017-08-13T09:23:23Z</time>
      </trkpt>
      <trkpt lat="44.2083" lon="0.87261">
        <ele>169.797</ele>
        <time>2017-08-13T09:23:29Z</time>
      </trkpt>
      <trkpt lat="44.2078" lon="0.87216">
        <ele>166.618</ele>
        <time>2017-08-13T09:23:36Z</time>
      </trkpt>
      <trkpt lat="44.20711" lon="0.87163">
        <ele>163.567</ele>
        <time>2017-08-13T09:23:45Z</time>
      </trkpt>
      <trkpt lat="44.20674" lon="0.87143">
        <ele>162.108</ele>
        <time>2017-08-13T09:23:50Z</time>
      </trkpt>
      <trkpt lat="44.20662" lon="0.87138">
        <ele>161.608</ele>
        <time>2017-08-13T09:23:53Z</time>
      </trkpt>
      <trkpt lat="44.20658" lon="0.87137">
        <ele>161.629</ele>
        <time>2017-08-13T09:23:56Z</time>
      </trkpt>
      <trkpt lat="44.20654" lon="0.87136">
        <ele>161.939</ele>
        <time>2017-08-13T09:24:02Z</time>
      </trkpt>
      <trkpt lat="44.20649" lon="0.87135">
        <ele>163.189</ele>
        <time>2017-08-13T09:24:21Z</time>
      </trkpt>
      <trkpt lat="44.20644" lon="0.87129">
        <ele>163.62</ele>
        <time>2017-08-13T09:24:25Z</time>
      </trkpt>
      <trkpt lat="44.20626" lon="0.87112">
        <ele>164.069</ele>
        <time>2017-08-13T09:24:34Z</time>
      </trkpt>
      <trkpt lat="44.20609" lon="0.87092">
        <ele>164.599</ele>
        <time>2017-08-13T09:24:41Z</time>
      </trkpt>
      <trkpt lat="44.20585" lon="0.87057">
        <ele>164.899</ele>
        <time>2017-08-13T09:24:52Z</time>
      </trkpt>
      <trkpt lat="44.20564" lon="0.87022">
        <ele>166.53</ele>
        <time>2017-08-13T09:25:03Z</time>
      </trkpt>
      <trkpt lat="44.20553" lon="0.86997">
        <ele>169.17</ele>
        <time>2017-08-13T09:25:12Z</time>
      </trkpt>
      <trkpt lat="44.20543" lon="0.86968">
        <ele>172.01</ele>
        <time>2017-08-13T09:25:23Z</time>
      </trkpt>
      <trkpt lat="44.20535" lon="0.86947">
        <ele>173.279</ele>
        <time>2017-08-13T09:25:31Z</time>
      </trkpt>
      <trkpt lat="44.2053" lon="0.86921">
        <ele>173.578</ele>
        <time>2017-08-13T09:25:39Z</time>
      </trkpt>
      <trkpt lat="44.20525" lon="0.86889">
        <ele>173.097</ele>
        <time>2017-08-13T09:25:46Z</time>
      </trkpt>
      <trkpt lat="44.20518" lon="0.8684">
        <ele>171.726</ele>
        <time>2017-08-13T09:25:55Z</time>
      </trkpt>
      <trkpt lat="44.20511" lon="0.86789">
        <ele>168.834</ele>
        <time>2017-08-13T09:26:03Z</time>
      </trkpt>
      <trkpt lat="44.20506" lon="0.86736">
        <ele>164.975</ele>
        <time>2017-08-13T09:26:10Z</time>
      </trkpt>
      <trkpt lat="44.20516" lon="0.86701">
        <ele>164.087</ele>
        <time>2017-08-13T09:26:15Z</time>
      </trkpt>
      <trkpt lat="44.20519" lon="0.86696">
        <ele>164.117</ele>
        <time>2017-08-13T09:26:16Z</time>
      </trkpt>
      <trkpt lat="44.20536" lon="0.86677">
        <ele>164.548</ele>
        <time>2017-08-13T09:26:22Z</time>
      </trkpt>
      <trkpt lat="44.20554" lon="0.86659">
        <ele>165.461</ele>
        <time>2017-08-13T09:26:31Z</time>
      </trkpt>
      <trkpt lat="44.20563" lon="0.86654">
        <ele>165.508</ele>
        <time>2017-08-13T09:26:37Z</time>
      </trkpt>
      <trkpt lat="44.20565" lon="0.86654">
        <ele>165.548</ele>
        <time>2017-08-13T09:26:39Z</time>
      </trkpt>
      <trkpt lat="44.20566" lon="0.86649">
        <ele>165.167</ele>
        <time>2017-08-13T09:26:45Z</time>
      </trkpt>
      <trkpt lat="44.20562" lon="0.86656">
        <ele>165.678</ele>
        <time>2017-08-13T09:26:52Z</time>
      </trkpt>
      <trkpt lat="44.20563" lon="0.86661">
        <ele>166.178</ele>
        <time>2017-08-13T09:26:56Z</time>
      </trkpt>
      <trkpt lat="44.20561" lon="0.86657">
        <ele>166.648</ele>
        <time>2017-08-13T09:27:00Z</time>
      </trkpt>
      <trkpt lat="44.2056" lon="0.86657">
        <ele>166.587</ele>
        <time>2017-08-13T09:27:01Z</time>
      </trkpt>
      <trkpt lat="44.20547" lon="0.86667">
        <ele>165.787</ele>
        <time>2017-08-13T09:27:08Z</time>
      </trkpt>
      <trkpt lat="44.2053" lon="0.86686">
        <ele>165.857</ele>
        <time>2017-08-13T09:27:16Z</time>
      </trkpt>
      <trkpt lat="44.20512" lon="0.86713">
        <ele>166.188</ele>
        <time>2017-08-13T09:27:25Z</time>
      </trkpt>
      <trkpt lat="44.20506" lon="0.86735">
        <ele>165.737</ele>
        <time>2017-08-13T09:27:32Z</time>
      </trkpt>
      <trkpt lat="44.20507" lon="0.86764">
        <ele>168.849</ele>
        <time>2017-08-13T09:27:40Z</time>
      </trkpt>
      <trkpt lat="44.2051" lon="0.86793">
        <ele>171.879</ele>
        <time>2017-08-13T09:27:50Z</time>
      </trkpt>
      <trkpt lat="44.20514" lon="0.86822">
        <ele>174.419</ele>
        <time>2017-08-13T09:28:00Z</time>
      </trkpt>
      <trkpt lat="44.20518" lon="0.86846">
        <ele>175.728</ele>
        <time>2017-08-13T09:28:09Z</time>
      </trkpt>
      <trkpt lat="44.20523" lon="0.86879">
        <ele>177.229</ele>
        <time>2017-08-13T09:28:20Z</time>
      </trkpt>
      <trkpt lat="44.20528" lon="0.86913">
        <ele>178.618</ele>
        <time>2017-08-13T09:28:31Z</time>
      </trkpt>
      <trkpt lat="44.20532" lon="0.86941">
        <ele>179.017</ele>
        <time>2017-08-13T09:28:40Z</time>
      </trkpt>
      <trkpt lat="44.20541" lon="0.8697">
        <ele>178.177</ele>
        <time>2017-08-13T09:28:50Z</time>
      </trkpt>
      <trkpt lat="44.20552" lon="0.86997">
        <ele>176.094</ele>
        <time>2017-08-13T09:28:55Z</time>
      </trkpt>
      <trkpt lat="44.20566" lon="0.8703">
        <ele>173.013</ele>
        <time>2017-08-13T09:28:59Z</time>
      </trkpt>
      <trkpt lat="44.206" lon="0.87085">
        <ele>170.416</ele>
        <time>2017-08-13T09:29:05Z</time>
      </trkpt>
      <trkpt lat="44.20635" lon="0.87128">
        <ele>169.567</ele>
        <time>2017-08-13T09:29:11Z</time>
      </trkpt>
      <trkpt lat="44.20643" lon="0.87135">
        <ele>169.407</ele>
        <time>2017-08-13T09:29:13Z</time>
      </trkpt>
      <trkpt lat="44.2065" lon="0.87144">
        <ele>169.048</ele>
        <time>2017-08-13T09:29:18Z</time>
      </trkpt>
      <trkpt lat="44.2065" lon="0.87145">
        <ele>169.028</ele>
        <time>2017-08-13T09:29:24Z</time>
      </trkpt>
      <trkpt lat="44.20655" lon="0.87147">
        <ele>169.098</ele>
        <time>2017-08-13T09:29:28Z</time>
      </trkpt>
      <trkpt lat="44.20672" lon="0.87151">
        <ele>169.058</ele>
        <time>2017-08-13T09:29:35Z</time>
      </trkpt>
      <trkpt lat="44.207" lon="0.87165">
        <ele>169.61</ele>
        <time>2017-08-13T09:29:43Z</time>
      </trkpt>
      <trkpt lat="44.20738" lon="0.87189">
        <ele>170.921</ele>
        <time>2017-08-13T09:29:53Z</time>
      </trkpt>
      <trkpt lat="44.20771" lon="0.87216">
        <ele>172.35</ele>
        <time>2017-08-13T09:30:02Z</time>
      </trkpt>
      <trkpt lat="44.20804" lon="0.87245">
        <ele>174.02</ele>
        <time>2017-08-13T09:30:12Z</time>
      </trkpt>
      <trkpt lat="44.20834" lon="0.87271">
        <ele>176.041</ele>
        <time>2017-08-13T09:30:22Z</time>
      </trkpt>
      <trkpt lat="44.20866" lon="0.87296">
        <ele>178.24</ele>
        <time>2017-08-13T09:30:34Z</time>
      </trkpt>
      <trkpt lat="44.20887" lon="0.87312">
        <ele>180.161</ele>
        <time>2017-08-13T09:30:44Z</time>
      </trkpt>
      <trkpt lat="44.20911" lon="0.87329">
        <ele>181.931</ele>
        <time>2017-08-13T09:30:56Z</time>
      </trkpt>
      <trkpt lat="44.20939" lon="0.8735">
        <ele>183.711</ele>
        <time>2017-08-13T09:31:10Z</time>
      </trkpt>
      <trkpt lat="44.20962" lon="0.87369">
        <ele>182.619</ele>
        <time>2017-08-13T09:31:19Z</time>
      </trkpt>
      <trkpt lat="44.20985" lon="0.8739">
        <ele>180.708</ele>
        <time>2017-08-13T09:31:24Z</time>
      </trkpt>
      <trkpt lat="44.21023" lon="0.87413">
        <ele>178.489</ele>
        <time>2017-08-13T09:31:30Z</time>
      </trkpt>
      <trkpt lat="44.211" lon="0.87451">
        <ele>176.239</ele>
        <time>2017-08-13T09:31:42Z</time>
      </trkpt>
      <trkpt lat="44.21164" lon="0.87477">
        <ele>175.131</ele>
        <time>2017-08-13T09:31:53Z</time>
      </trkpt>
      <trkpt lat="44.21202" lon="0.87492">
        <ele>175.001</ele>
        <time>2017-08-13T09:32:01Z</time>
      </trkpt>
      <trkpt lat="44.21232" lon="0.87504">
        <ele>175.031</ele>
        <time>2017-08-13T09:32:09Z</time>
      </trkpt>
      <trkpt lat="44.2126" lon="0.87515">
        <ele>175.332</ele>
        <time>2017-08-13T09:32:18Z</time>
      </trkpt>
      <trkpt lat="44.21268" lon="0.87518">
        <ele>175.482</ele>
        <time>2017-08-13T09:32:24Z</time>
      </trkpt>
      <trkpt lat="44.21271" lon="0.87519">
        <ele>175.451</ele>
        <time>2017-08-13T09:32:28Z</time>
      </trkpt>
      <trkpt lat="44.21271" lon="0.87521">
        <ele>175.161</ele>
        <time>2017-08-13T09:32:35Z</time>
      </trkpt>
      <trkpt lat="44.2127" lon="0.87519">
        <ele>174.152</ele>
        <time>2017-08-13T09:33:04Z</time>
      </trkpt>
      <trkpt lat="44.21278" lon="0.8752">
        <ele>173.973</ele>
        <time>2017-08-13T09:33:09Z</time>
      </trkpt>
      <trkpt lat="44.213" lon="0.87529">
        <ele>174.283</ele>
        <time>2017-08-13T09:33:17Z</time>
      </trkpt>
      <trkpt lat="44.21325" lon="0.87538">
        <ele>175.423</ele>
        <time>2017-08-13T09:33:26Z</time>
      </trkpt>
      <trkpt lat="44.21349" lon="0.87546">
        <ele>177.173</ele>
        <time>2017-08-13T09:33:36Z</time>
      </trkpt>
      <trkpt lat="44.21371" lon="0.87553">
        <ele>178.794</ele>
        <time>2017-08-13T09:33:46Z</time>
      </trkpt>
      <trkpt lat="44.21391" lon="0.87555">
        <ele>180.334</ele>
        <time>2017-08-13T09:33:55Z</time>
      </trkpt>
      <trkpt lat="44.21409" lon="0.87555">
        <ele>181.403</ele>
        <time>2017-08-13T09:34:04Z</time>
      </trkpt>
      <trkpt lat="44.21425" lon="0.87553">
        <ele>182.904</ele>
        <time>2017-08-13T09:34:12Z</time>
      </trkpt>
      <trkpt lat="44.21438" lon="0.87551">
        <ele>183.283</ele>
        <time>2017-08-13T09:34:19Z</time>
      </trkpt>
      <trkpt lat="44.21452" lon="0.87548">
        <ele>181.542</ele>
        <time>2017-08-13T09:34:24Z</time>
      </trkpt>
      <trkpt lat="44.21478" lon="0.87547">
        <ele>178.771</ele>
        <time>2017-08-13T09:34:29Z</time>
      </trkpt>
      <trkpt lat="44.21517" lon="0.8755">
        <ele>174.65</ele>
        <time>2017-08-13T09:34:34Z</time>
      </trkpt>
      <trkpt lat="44.21573" lon="0.87559">
        <ele>171.451</ele>
        <time>2017-08-13T09:34:40Z</time>
      </trkpt>
      <trkpt lat="44.21617" lon="0.87566">
        <ele>171.813</ele>
        <time>2017-08-13T09:34:45Z</time>
      </trkpt>
      <trkpt lat="44.21649" lon="0.87576">
        <ele>172.605</ele>
        <time>2017-08-13T09:34:50Z</time>
      </trkpt>
      <trkpt lat="44.21668" lon="0.87584">
        <ele>173.705</ele>
        <time>2017-08-13T09:34:55Z</time>
      </trkpt>
      <trkpt lat="44.21682" lon="0.87591">
        <ele>173.964</ele>
        <time>2017-08-13T09:35:01Z</time>
      </trkpt>
      <trkpt lat="44.21701" lon="0.87601">
        <ele>173.303</ele>
        <time>2017-08-13T09:35:07Z</time>
      </trkpt>
      <trkpt lat="44.21731" lon="0.87617">
        <ele>172.113</ele>
        <time>2017-08-13T09:35:14Z</time>
      </trkpt>
      <trkpt lat="44.21769" lon="0.87642">
        <ele>171.374</ele>
        <time>2017-08-13T09:35:22Z</time>
      </trkpt>
      <trkpt lat="44.21774" lon="0.87645">
        <ele>171.324</ele>
        <time>2017-08-13T09:35:23Z</time>
      </trkpt>
      <trkpt lat="44.21808" lon="0.87685">
        <ele>171.344</ele>
        <time>2017-08-13T09:35:32Z</time>
      </trkpt>
      <trkpt lat="44.21827" lon="0.87706">
        <ele>171.204</ele>
        <time>2017-08-13T09:35:38Z</time>
      </trkpt>
      <trkpt lat="44.21853" lon="0.87727">
        <ele>171.584</ele>
        <time>2017-08-13T09:35:45Z</time>
      </trkpt>
      <trkpt lat="44.21892" lon="0.87755">
        <ele>172.826</ele>
        <time>2017-08-13T09:35:55Z</time>
      </trkpt>
      <trkpt lat="44.21926" lon="0.87784">
        <ele>174.286</ele>
        <time>2017-08-13T09:36:05Z</time>
      </trkpt>
      <trkpt lat="44.21961" lon="0.87816">
        <ele>175.916</ele>
        <time>2017-08-13T09:36:16Z</time>
      </trkpt>
      <trkpt lat="44.22" lon="0.87851">
        <ele>177.436</ele>
        <time>2017-08-13T09:36:29Z</time>
      </trkpt>
      <trkpt lat="44.22027" lon="0.87876">
        <ele>177.935</ele>
        <time>2017-08-13T09:36:39Z</time>
      </trkpt>
      <trkpt lat="44.2203" lon="0.87879">
        <ele>177.905</ele>
        <time>2017-08-13T09:36:40Z</time>
      </trkpt>
      <trkpt lat="44.22042" lon="0.87872">
        <ele>178.406</ele>
        <time>2017-08-13T09:36:44Z</time>
      </trkpt>
      <trkpt lat="44.22072" lon="0.87833">
        <ele>178.587</ele>
        <time>2017-08-13T09:36:55Z</time>
      </trkpt>
      <trkpt lat="44.22095" lon="0.87805">
        <ele>178.517</ele>
        <time>2017-08-13T09:37:03Z</time>
      </trkpt>
      <trkpt lat="44.2213" lon="0.87762">
        <ele>178.216</ele>
        <time>2017-08-13T09:37:14Z</time>
      </trkpt>
      <trkpt lat="44.22168" lon="0.87717">
        <ele>179.047</ele>
        <time>2017-08-13T09:37:26Z</time>
      </trkpt>
      <trkpt lat="44.22199" lon="0.87682">
        <ele>180.167</ele>
        <time>2017-08-13T09:37:36Z</time>
      </trkpt>
      <trkpt lat="44.22234" lon="0.87646">
        <ele>180.837</ele>
        <time>2017-08-13T09:37:47Z</time>
      </trkpt>
      <trkpt lat="44.22258" lon="0.87626">
        <ele>181.005</ele>
        <time>2017-08-13T09:37:55Z</time>
      </trkpt>
      <trkpt lat="44.22278" lon="0.87611">
        <ele>179.975</ele>
        <time>2017-08-13T09:38:01Z</time>
      </trkpt>
      <trkpt lat="44.22303" lon="0.87591">
        <ele>177.825</ele>
        <time>2017-08-13T09:38:06Z</time>
      </trkpt>
      <trkpt lat="44.22342" lon="0.87562">
        <ele>175.123</ele>
        <time>2017-08-13T09:38:12Z</time>
      </trkpt>
      <trkpt lat="44.22397" lon="0.87522">
        <ele>170.403</ele>
        <time>2017-08-13T09:38:19Z</time>
      </trkpt>
      <trkpt lat="44.22458" lon="0.8749">
        <ele>167.115</ele>
        <time>2017-08-13T09:38:26Z</time>
      </trkpt>
      <trkpt lat="44.2248" lon="0.87474">
        <ele>166.285</ele>
        <time>2017-08-13T09:38:29Z</time>
      </trkpt>
      <trkpt lat="44.22506" lon="0.87437">
        <ele>166.036</ele>
        <time>2017-08-13T09:38:34Z</time>
      </trkpt>
      <trkpt lat="44.22513" lon="0.874">
        <ele>165.646</ele>
        <time>2017-08-13T09:38:38Z</time>
      </trkpt>
      <trkpt lat="44.22508" lon="0.87367">
        <ele>165.387</ele>
        <time>2017-08-13T09:38:42Z</time>
      </trkpt>
      <trkpt lat="44.22501" lon="0.87346">
        <ele>165.437</ele>
        <time>2017-08-13T09:38:45Z</time>
      </trkpt>
      <trkpt lat="44.22487" lon="0.87314">
        <ele>165.918</ele>
        <time>2017-08-13T09:38:50Z</time>
      </trkpt>
      <trkpt lat="44.22472" lon="0.87282">
        <ele>166.648</ele>
        <time>2017-08-13T09:38:55Z</time>
      </trkpt>
      <trkpt lat="44.22459" lon="0.87247">
        <ele>165.717</ele>
        <time>2017-08-13T09:39:00Z</time>
      </trkpt>
      <trkpt lat="44.22454" lon="0.87226">
        <ele>165.457</ele>
        <time>2017-08-13T09:39:03Z</time>
      </trkpt>
      <trkpt lat="44.22448" lon="0.87182">
        <ele>165.977</ele>
        <time>2017-08-13T09:39:10Z</time>
      </trkpt>
      <trkpt lat="44.22444" lon="0.87143">
        <ele>165.577</ele>
        <time>2017-08-13T09:39:18Z</time>
      </trkpt>
      <trkpt lat="44.22436" lon="0.87098">
        <ele>165.517</ele>
        <time>2017-08-13T09:39:26Z</time>
      </trkpt>
      <trkpt lat="44.22427" lon="0.87047">
        <ele>164.997</ele>
        <time>2017-08-13T09:39:34Z</time>
      </trkpt>
      <trkpt lat="44.2242" lon="0.87027">
        <ele>164.356</ele>
        <time>2017-08-13T09:39:37Z</time>
      </trkpt>
      <trkpt lat="44.224" lon="0.86998">
        <ele>163.546</ele>
        <time>2017-08-13T09:39:42Z</time>
      </trkpt>
      <trkpt lat="44.22355" lon="0.86962">
        <ele>163.467</ele>
        <time>2017-08-13T09:39:52Z</time>
      </trkpt>
      <trkpt lat="44.22328" lon="0.86938">
        <ele>164.346</ele>
        <time>2017-08-13T09:40:00Z</time>
      </trkpt>
      <trkpt lat="44.22305" lon="0.86913">
        <ele>165.747</ele>
        <time>2017-08-13T09:40:08Z</time>
      </trkpt>
      <trkpt lat="44.22291" lon="0.86886">
        <ele>167.147</ele>
        <time>2017-08-13T09:40:15Z</time>
      </trkpt>
      <trkpt lat="44.22285" lon="0.86852">
        <ele>168.297</ele>
        <time>2017-08-13T09:40:23Z</time>
      </trkpt>
      <trkpt lat="44.22285" lon="0.8681">
        <ele>169.377</ele>
        <time>2017-08-13T09:40:33Z</time>
      </trkpt>
      <trkpt lat="44.2229" lon="0.86778">
        <ele>169.406</ele>
        <time>2017-08-13T09:40:41Z</time>
      </trkpt>
      <trkpt lat="44.223" lon="0.86746">
        <ele>168.516</ele>
        <time>2017-08-13T09:40:50Z</time>
      </trkpt>
      <trkpt lat="44.22313" lon="0.86715">
        <ele>170.176</ele>
        <time>2017-08-13T09:40:59Z</time>
      </trkpt>
      <trkpt lat="44.22332" lon="0.86674">
        <ele>172.786</ele>
        <time>2017-08-13T09:41:11Z</time>
      </trkpt>
      <trkpt lat="44.22352" lon="0.86642">
        <ele>175.007</ele>
        <time>2017-08-13T09:41:21Z</time>
      </trkpt>
      <trkpt lat="44.22365" lon="0.86627">
        <ele>175.836</ele>
        <time>2017-08-13T09:41:27Z</time>
      </trkpt>
      <trkpt lat="44.22383" lon="0.86604">
        <ele>176.606</ele>
        <time>2017-08-13T09:41:35Z</time>
      </trkpt>
      <trkpt lat="44.22396" lon="0.86578">
        <ele>177.757</ele>
        <time>2017-08-13T09:41:42Z</time>
      </trkpt>
      <trkpt lat="44.22408" lon="0.86547">
        <ele>179.227</ele>
        <time>2017-08-13T09:41:50Z</time>
      </trkpt>
      <trkpt lat="44.22419" lon="0.86506">
        <ele>181.167</ele>
        <time>2017-08-13T09:42:00Z</time>
      </trkpt>
      <trkpt lat="44.22431" lon="0.8647">
        <ele>182.056</ele>
        <time>2017-08-13T09:42:09Z</time>
      </trkpt>
      <trkpt lat="44.22439" lon="0.86441">
        <ele>181.465</ele>
        <time>2017-08-13T09:42:16Z</time>
      </trkpt>
      <trkpt lat="44.22451" lon="0.86403">
        <ele>180.134</ele>
        <time>2017-08-13T09:42:22Z</time>
      </trkpt>
      <trkpt lat="44.22459" lon="0.86374">
        <ele>179.084</ele>
        <time>2017-08-13T09:42:26Z</time>
      </trkpt>
      <trkpt lat="44.2246" lon="0.86343">
        <ele>178.135</ele>
        <time>2017-08-13T09:42:30Z</time>
      </trkpt>
      <trkpt lat="44.22452" lon="0.86294">
        <ele>177.865</ele>
        <time>2017-08-13T09:42:37Z</time>
      </trkpt>
      <trkpt lat="44.22445" lon="0.86237">
        <ele>177.045</ele>
        <time>2017-08-13T09:42:45Z</time>
      </trkpt>
      <trkpt lat="44.22435" lon="0.86166">
        <ele>176.375</ele>
        <time>2017-08-13T09:42:55Z</time>
      </trkpt>
      <trkpt lat="44.2243" lon="0.86125">
        <ele>176.81</ele>
        <time>2017-08-13T09:43:02Z</time>
      </trkpt>
      <trkpt lat="44.22419" lon="0.86083">
        <ele>178.296</ele>
        <time>2017-08-13T09:43:10Z</time>
      </trkpt>
      <trkpt lat="44.2241" lon="0.8605">
        <ele>180.276</ele>
        <time>2017-08-13T09:43:18Z</time>
      </trkpt>
      <trkpt lat="44.22402" lon="0.86019">
        <ele>182.096</ele>
        <time>2017-08-13T09:43:26Z</time>
      </trkpt>
      <trkpt lat="44.22392" lon="0.85984">
        <ele>184.066</ele>
        <time>2017-08-13T09:43:36Z</time>
      </trkpt>
      <trkpt lat="44.22382" lon="0.85947">
        <ele>184.945</ele>
        <time>2017-08-13T09:43:45Z</time>
      </trkpt>
      <trkpt lat="44.22369" lon="0.85904">
        <ele>185.055</ele>
        <time>2017-08-13T09:43:53Z</time>
      </trkpt>
      <trkpt lat="44.22355" lon="0.85848">
        <ele>185.004</ele>
        <time>2017-08-13T09:44:02Z</time>
      </trkpt>
      <trkpt lat="44.22337" lon="0.85771">
        <ele>184.224</ele>
        <time>2017-08-13T09:44:14Z</time>
      </trkpt>
      <trkpt lat="44.2232" lon="0.85699">
        <ele>183.124</ele>
        <time>2017-08-13T09:44:25Z</time>
      </trkpt>
      <trkpt lat="44.22311" lon="0.85635">
        <ele>182.033</ele>
        <time>2017-08-13T09:44:34Z</time>
      </trkpt>
      <trkpt lat="44.22301" lon="0.85557">
        <ele>180.493</ele>
        <time>2017-08-13T09:44:44Z</time>
      </trkpt>
      <trkpt lat="44.22288" lon="0.85488">
        <ele>180.355</ele>
        <time>2017-08-13T09:44:53Z</time>
      </trkpt>
      <trkpt lat="44.2228" lon="0.85448">
        <ele>181.684</ele>
        <time>2017-08-13T09:45:00Z</time>
      </trkpt>
      <trkpt lat="44.22275" lon="0.85424">
        <ele>182.684</ele>
        <time>2017-08-13T09:45:06Z</time>
      </trkpt>
      <trkpt lat="44.22264" lon="0.85381">
        <ele>183.743</ele>
        <time>2017-08-13T09:45:14Z</time>
      </trkpt>
      <trkpt lat="44.22251" lon="0.85342">
        <ele>182.021</ele>
        <time>2017-08-13T09:45:20Z</time>
      </trkpt>
      <trkpt lat="44.2223" lon="0.85292">
        <ele>179.141</ele>
        <time>2017-08-13T09:45:26Z</time>
      </trkpt>
      <trkpt lat="44.22196" lon="0.85227">
        <ele>175.32</ele>
        <time>2017-08-13T09:45:33Z</time>
      </trkpt>
      <trkpt lat="44.22156" lon="0.8516">
        <ele>172.762</ele>
        <time>2017-08-13T09:45:40Z</time>
      </trkpt>
      <trkpt lat="44.22121" lon="0.85114">
        <ele>171.793</ele>
        <time>2017-08-13T09:45:46Z</time>
      </trkpt>
      <trkpt lat="44.22085" lon="0.85083">
        <ele>171.543</ele>
        <time>2017-08-13T09:45:52Z</time>
      </trkpt>
      <trkpt lat="44.22048" lon="0.85051">
        <ele>171.511</ele>
        <time>2017-08-13T09:45:59Z</time>
      </trkpt>
      <trkpt lat="44.22022" lon="0.85018">
        <ele>171.261</ele>
        <time>2017-08-13T09:46:06Z</time>
      </trkpt>
      <trkpt lat="44.21994" lon="0.84978">
        <ele>170.46</ele>
        <time>2017-08-13T09:46:15Z</time>
      </trkpt>
      <trkpt lat="44.21967" lon="0.84939">
        <ele>168.77</ele>
        <time>2017-08-13T09:46:23Z</time>
      </trkpt>
      <trkpt lat="44.21966" lon="0.84934">
        <ele>168.65</ele>
        <time>2017-08-13T09:46:24Z</time>
      </trkpt>
      <trkpt lat="44.21971" lon="0.84913">
        <ele>168.341</ele>
        <time>2017-08-13T09:46:28Z</time>
      </trkpt>
      <trkpt lat="44.2199" lon="0.84868">
        <ele>168.161</ele>
        <time>2017-08-13T09:46:38Z</time>
      </trkpt>
      <trkpt lat="44.22003" lon="0.84831">
        <ele>167.511</ele>
        <time>2017-08-13T09:46:47Z</time>
      </trkpt>
      <trkpt lat="44.22005" lon="0.84826">
        <ele>167.401</ele>
        <time>2017-08-13T09:46:52Z</time>
      </trkpt>
      <trkpt lat="44.22005" lon="0.84825">
        <ele>167.411</ele>
        <time>2017-08-13T09:46:53Z</time>
      </trkpt>
      <trkpt lat="44.22006" lon="0.84829">
        <ele>167.771</ele>
        <time>2017-08-13T09:46:58Z</time>
      </trkpt>
      <trkpt lat="44.22005" lon="0.84831">
        <ele>167.891</ele>
        <time>2017-08-13T09:46:59Z</time>
      </trkpt>
      <trkpt lat="44.21995" lon="0.8486">
        <ele>168.071</ele>
        <time>2017-08-13T09:47:07Z</time>
      </trkpt>
      <trkpt lat="44.21983" lon="0.84888">
        <ele>167.841</ele>
        <time>2017-08-13T09:47:13Z</time>
      </trkpt>
      <trkpt lat="44.21973" lon="0.84914">
        <ele>167.981</ele>
        <time>2017-08-13T09:47:18Z</time>
      </trkpt>
      <trkpt lat="44.21956" lon="0.84928">
        <ele>167.96</ele>
        <time>2017-08-13T09:47:23Z</time>
      </trkpt>
      <trkpt lat="44.21949" lon="0.8492">
        <ele>167.63</ele>
        <time>2017-08-13T09:47:25Z</time>
      </trkpt>
      <trkpt lat="44.2193" lon="0.84895">
        <ele>166.329</ele>
        <time>2017-08-13T09:47:30Z</time>
      </trkpt>
      <trkpt lat="44.21903" lon="0.84847">
        <ele>165.551</ele>
        <time>2017-08-13T09:47:38Z</time>
      </trkpt>
      <trkpt lat="44.21889" lon="0.8481">
        <ele>166.632</ele>
        <time>2017-08-13T09:47:45Z</time>
      </trkpt>
      <trkpt lat="44.21882" lon="0.84793">
        <ele>167.491</ele>
        <time>2017-08-13T09:47:50Z</time>
      </trkpt>
      <trkpt lat="44.2188" lon="0.84786">
        <ele>167.93</ele>
        <time>2017-08-13T09:47:56Z</time>
      </trkpt>
      <trkpt lat="44.2188" lon="0.84786">
        <ele>167.1</ele>
        <time>2017-08-13T09:48:08Z</time>
      </trkpt>
      <trkpt lat="44.21881" lon="0.84785">
        <ele>166.91</ele>
        <time>2017-08-13T09:48:33Z</time>
      </trkpt>
      <trkpt lat="44.21879" lon="0.84779">
        <ele>169.751</ele>
        <time>2017-08-13T09:49:21Z</time>
      </trkpt>
      <trkpt lat="44.21871" lon="0.84762">
        <ele>169.49</ele>
        <time>2017-08-13T09:49:26Z</time>
      </trkpt>
      <trkpt lat="44.2185" lon="0.84718">
        <ele>167.739</ele>
        <time>2017-08-13T09:49:36Z</time>
      </trkpt>
      <trkpt lat="44.21844" lon="0.84703">
        <ele>167.369</ele>
        <time>2017-08-13T09:49:39Z</time>
      </trkpt>
      <trkpt lat="44.21856" lon="0.84684">
        <ele>166.098</ele>
        <time>2017-08-13T09:49:43Z</time>
      </trkpt>
      <trkpt lat="44.2186" lon="0.84679">
        <ele>165.578</ele>
        <time>2017-08-13T09:49:44Z</time>
      </trkpt>
      <trkpt lat="44.21925" lon="0.84596">
        <ele>161.768</ele>
        <time>2017-08-13T09:49:58Z</time>
      </trkpt>
      <trkpt lat="44.21955" lon="0.84566">
        <ele>159.538</ele>
        <time>2017-08-13T09:50:03Z</time>
      </trkpt>
      <trkpt lat="44.21969" lon="0.84556">
        <ele>159.058</ele>
        <time>2017-08-13T09:50:05Z</time>
      </trkpt>
      <trkpt lat="44.21992" lon="0.84553">
        <ele>158.419</ele>
        <time>2017-08-13T09:50:09Z</time>
      </trkpt>
      <trkpt lat="44.22003" lon="0.84554">
        <ele>157.318</ele>
        <time>2017-08-13T09:50:13Z</time>
      </trkpt>
      <trkpt lat="44.22011" lon="0.84547">
        <ele>156.258</ele>
        <time>2017-08-13T09:50:18Z</time>
      </trkpt>
      <trkpt lat="44.22014" lon="0.84547">
        <ele>156.53</ele>
        <time>2017-08-13T09:50:26Z</time>
      </trkpt>
      <trkpt lat="44.22015" lon="0.84547">
        <ele>156.43</ele>
        <time>2017-08-13T09:50:31Z</time>
      </trkpt>
      <trkpt lat="44.22014" lon="0.8455">
        <ele>155.759</ele>
        <time>2017-08-13T09:50:39Z</time>
      </trkpt>
      <trkpt lat="44.22013" lon="0.84552">
        <ele>156.28</ele>
        <time>2017-08-13T09:51:53Z</time>
      </trkpt>
      <trkpt lat="44.22013" lon="0.84552">
        <ele>155.9</ele>
        <time>2017-08-13T09:52:01Z</time>
      </trkpt>
      <trkpt lat="44.22011" lon="0.8455">
        <ele>157.251</ele>
        <time>2017-08-13T09:52:07Z</time>
      </trkpt>
      <trkpt lat="44.22011" lon="0.8455">
        <ele>157.433</ele>
        <time>2017-08-13T09:52:08Z</time>
      </trkpt>
      <trkpt lat="44.21997" lon="0.8455">
        <ele>172.772</ele>
        <time>2017-08-14T08:44:33Z</time>
      </trkpt>
      <trkpt lat="44.21997" lon="0.8455">
        <ele>172.772</ele>
        <time>2017-08-14T08:44:33Z</time>
      </trkpt>
      <trkpt lat="44.21997" lon="0.8455">
        <ele>172.856</ele>
        <time>2017-08-14T08:44:37Z</time>
      </trkpt>
    </trkseg>
  </trk>
</gpx>